»·PEaware :: RNGR712 KNGP-KCLL

RNGR712 :: KNGP-KCLL

FLIGHT INFORMATION

Flight Status: Arrived
Operator: Unknown
More flights by this operator :: More flights under this callsign
Pilot: USN Avenger (31125)
Aircraft: BEECH AIRCRAFT T-6A TEXAN
(TEX2)
More flights by this aircraft type
Origin: KNGP Corpus Christi NAS/Truax
United States
Destination: KCLL Easterwood
United States
More flights between these airports :: More routes between these airports
Route: WORRY V13 PSX IDU CLL
File this flight plan on PilotEdge
Remarks: REQUEST VOR RWY 11 (PT) AT KCLL
Altitude:
(Current/Filed)
15,000ft
Speed:
(Current/Filed)
240kts
Departed: 17-Nov-23 06:49 AM
Arrived: 17-Nov-23 07:57 AM
Distance/Time
Traveled:
180nm/1:08
Distance/Time
To Go:
Arrived

Flight Plot

Page will automatically refresh every two minutes.

Flight plan parsing failed; only flown route is shown


Map Options




Map Legend


Flown Route
Filed Route
Departure Airport
Arrival Airport
Navaid (VOR, NDB)
Fix

Horizontal Profiles

Position Reports

Time Latitude Longitude Heading Altitude Ground
Speed
17-Nov-23 06:19 27.698544 -97.284285 158 22ft 0kts
17-Nov-23 06:20 27.698542 -97.284284 158 22ft 0kts
17-Nov-23 06:21 27.698541 -97.284284 158 22ft 0kts
17-Nov-23 06:22 27.698539 -97.284283 158 22ft 0kts
17-Nov-23 06:23 27.698538 -97.284282 158 22ft 0kts
17-Nov-23 06:24 27.698536 -97.284282 158 22ft 0kts
17-Nov-23 06:25 27.698534 -97.284281 158 22ft 0kts
17-Nov-23 06:26 27.698459 -97.284666 266 22ft 5kts
17-Nov-23 06:27 27.698377 -97.284709 132 22ft 0kts
17-Nov-23 06:28 27.698376 -97.284707 132 22ft 0kts
17-Nov-23 06:29 27.698374 -97.284706 132 22ft 0kts
17-Nov-23 06:30 27.698373 -97.284704 132 22ft 0kts
17-Nov-23 06:31 27.698372 -97.284703 132 22ft 0kts
17-Nov-23 06:32 27.698371 -97.284701 132 22ft 0kts
17-Nov-23 06:33 27.698370 -97.284700 132 22ft 0kts
17-Nov-23 06:34 27.698369 -97.284699 132 22ft 0kts
17-Nov-23 06:35 27.698368 -97.284697 132 22ft 0kts
17-Nov-23 06:36 27.698366 -97.284696 132 22ft 0kts
17-Nov-23 06:37 27.698365 -97.284694 132 22ft 0kts
17-Nov-23 06:38 27.698364 -97.284693 132 22ft 0kts
17-Nov-23 06:39 27.698363 -97.284691 132 22ft 0kts
17-Nov-23 06:40 27.698362 -97.284690 132 22ft 0kts
17-Nov-23 06:41 27.698360 -97.284688 132 22ft 0kts
17-Nov-23 06:42 27.698359 -97.284687 132 22ft 0kts
17-Nov-23 06:43 27.698358 -97.284685 132 22ft 0kts
17-Nov-23 06:44 27.698367 -97.285512 332 22ft 4kts
17-Nov-23 06:45 27.698969 -97.287002 225 22ft 16kts
17-Nov-23 06:46 27.695487 -97.290640 227 22ft 2kts
17-Nov-23 06:47 27.695075 -97.291415 210 22ft 5kts
17-Nov-23 06:48 27.690000 -97.285847 134 69ft 113kts
17-Nov-23 06:49 27.668022 -97.250511 87 2474ft 152kts
17-Nov-23 06:50 27.699289 -97.212115 41 4786ft 185kts
17-Nov-23 06:51 27.749333 -97.207291 353 7342ft 189kts
17-Nov-23 06:52 27.803579 -97.214220 352 9658ft 201kts
17-Nov-23 06:53 27.859667 -97.224059 351 11833ft 209kts
17-Nov-23 06:54 27.918176 -97.232195 353 13814ft 214kts
17-Nov-23 06:55 27.978688 -97.242547 348 15453ft 226kts
17-Nov-23 06:56 28.051240 -97.252303 353 15082ft 281kts
17-Nov-23 06:57 28.123477 -97.248199 31 15552ft 228kts
17-Nov-23 06:58 28.176404 -97.203910 37 14937ft 234kts
17-Nov-23 06:59 28.227035 -97.159212 39 14788ft 224kts
17-Nov-23 07:00 28.275105 -97.113272 41 14956ft 227kts
17-Nov-23 07:01 28.324999 -97.065495 40 15029ft 241kts
17-Nov-23 07:02 28.376531 -97.014829 41 15095ft 244kts
17-Nov-23 07:03 28.430129 -96.966114 37 15031ft 250kts
17-Nov-23 07:04 28.477752 -96.911364 62 15057ft 243kts
17-Nov-23 07:05 28.508237 -96.842971 62 15088ft 240kts
17-Nov-23 07:06 28.539354 -96.774617 61 14942ft 244kts
17-Nov-23 07:07 28.571587 -96.706928 60 14934ft 241kts
17-Nov-23 07:08 28.605156 -96.641374 58 15046ft 237kts
17-Nov-23 07:09 28.636036 -96.575002 65 15120ft 239kts
17-Nov-23 07:10 28.665635 -96.506668 60 15076ft 241kts
17-Nov-23 07:11 28.696164 -96.438641 63 15077ft 241kts
17-Nov-23 07:12 28.730756 -96.372903 59 15042ft 241kts
17-Nov-23 07:13 28.765051 -96.306606 61 14848ft 248kts
17-Nov-23 07:14 28.819925 -96.276230 352 15010ft 239kts
17-Nov-23 07:15 28.874761 -96.316292 317 15001ft 242kts
17-Nov-23 07:16 28.939866 -96.333231 350 14871ft 243kts
17-Nov-23 07:17 29.006223 -96.344526 352 14977ft 238kts
17-Nov-23 07:18 29.072226 -96.347789 0 15074ft 238kts
17-Nov-23 07:19 29.138764 -96.347744 356 15104ft 239kts
17-Nov-23 07:20 29.200889 -96.373623 328 15075ft 240kts
17-Nov-23 07:21 29.256084 -96.419647 319 14811ft 246kts
17-Nov-23 07:22 29.309921 -96.464421 334 15068ft 237kts
17-Nov-23 07:23 29.370854 -96.494335 337 13092ft 232kts
17-Nov-23 07:24 29.432929 -96.512578 349 12945ft 236kts
17-Nov-23 07:25 29.497722 -96.524784 342 12955ft 238kts
17-Nov-23 07:26 29.520592 -96.551765 302 12301ft 251kts
17-Nov-23 07:27 29.577594 -96.572040 358 12943ft 233kts
17-Nov-23 07:28 29.641958 -96.574391 358 13096ft 235kts
17-Nov-23 07:29 29.706520 -96.563521 17 13077ft 238kts
17-Nov-23 07:30 29.769995 -96.542029 359 12943ft 243kts
17-Nov-23 07:31 29.835160 -96.553112 344 13050ft 238kts
17-Nov-23 07:32 29.900923 -96.560760 356 13083ft 237kts
17-Nov-23 07:33 29.967755 -96.560321 8 12837ft 246kts
17-Nov-23 07:34 30.033224 -96.541511 11 12938ft 236kts
17-Nov-23 07:35 30.098615 -96.530032 1 12877ft 239kts
17-Nov-23 07:36 30.164261 -96.538343 353 9999ft 233kts
17-Nov-23 07:37 30.226975 -96.548186 351 7240ft 222kts
17-Nov-23 07:38 30.287241 -96.553334 356 4611ft 212kts
17-Nov-23 07:39 30.343444 -96.558776 354 2996ft 195kts
17-Nov-23 07:40 30.399089 -96.564616 355 3137ft 208kts
17-Nov-23 07:41 30.457539 -96.569385 353 3086ft 212kts
17-Nov-23 07:42 30.516605 -96.576064 356 3011ft 213kts
17-Nov-23 07:43 30.575396 -96.581092 354 3038ft 210kts
17-Nov-23 07:44 30.633784 -96.586474 356 3036ft 211kts
17-Nov-23 07:46 30.692765 -96.592198 355 2962ft 213kts
17-Nov-23 07:47 30.751549 -96.598144 354 2949ft 210kts
17-Nov-23 07:48 30.784621 -96.559361 88 2391ft 191kts
17-Nov-23 07:49 30.787510 -96.501135 83 2077ft 157kts
17-Nov-23 07:50 30.794010 -96.451183 79 2143ft 156kts
17-Nov-23 07:51 30.793649 -96.403041 143 2183ft 157kts
17-Nov-23 07:52 30.750375 -96.397117 173 2160ft 157kts
17-Nov-23 07:53 30.707646 -96.390192 158 2048ft 156kts
17-Nov-23 07:54 30.669293 -96.378754 168 1633ft 126kts
17-Nov-23 07:55 30.634751 -96.371637 170 1007ft 128kts
17-Nov-23 07:56 30.603719 -96.364582 168 491ft 100kts
17-Nov-23 07:57 30.584087 -96.359989 169 324ft 30kts

Navigation Log

Ident Type
Flight plan parsing failed, navigation log unavailable